Time;durP1;ratioP1;P1;durP2;ratioP2;P2;SDS_P1;SDS_P2;PMS_P1;PMS_P2;Temp;Humidity;BMP_temperature;BMP_pressure;BME280_temperature;BME280_humidity;BME280_pressure;Samples;Min_cycle;Max_cycle;Signal;HPM_P1;HPM_P2
2024/02/26 00:02:18;;;;;;;;;;;;;;;4.58;42.33;93728.69;4956158;28;20388;-66
2024/02/26 00:04:43;;;;;;;;;;;;;;;4.57;41.86;93734.97;4953301;28;19987;-65
2024/02/26 00:07:09;;;;;;;;;;;;;;;4.31;42.22;93728.38;4956709;28;20110;-65
2024/02/26 00:09:37;;;;;;;;;;;;;;;4.49;42.31;93727.16;4955480;28;20439;-65
2024/02/26 00:12:03;;;;;;;;;;;;;;;4.44;42.40;93719.81;4955983;28;19934;-65
2024/02/26 00:14:29;;;;;;;;;;;;;;;4.48;42.13;93704.44;4955850;28;19954;-65
2024/02/26 00:16:54;;;;;;;;;;;;;;;4.71;41.97;93707.75;4950445;28;19925;-66
2024/02/26 00:19:19;;;;;;;;;;;;;;;4.70;41.67;93713.19;4955522;28;19925;-66
2024/02/26 00:21:44;;;;;;;;;;;;;;;4.76;41.60;93711.63;4956339;28;19922;-64
2024/02/26 00:24:10;;;;;;;;;;;;;;;4.64;41.89;93709.50;4955963;28;19926;-65
2024/02/26 00:26:35;;;;;;;;;;;;;;;4.71;41.65;93707.75;4955830;28;20596;-65
2024/02/26 00:29:00;;;;;;;;;;;;;;;4.75;41.87;93708.16;4970918;28;20698;-65
2024/02/26 00:31:25;;;;;;;;;;;;;;;4.64;42.52;93712.13;4955423;28;19965;-65
2024/02/26 00:33:51;;;;;;;;;;;;;;;4.73;41.92;93707.53;4955793;28;19981;-65
2024/02/26 00:36:16;;;;;;;;;;;;;;;4.77;41.67;93702.72;4956123;28;19926;-65
2024/02/26 00:38:42;;;;;;;;;;;;;;;4.79;41.47;93700.69;4955442;28;19968;-65
2024/02/26 00:41:08;;;;;;;;;;;;;;;4.61;41.73;93699.31;4955645;28;20448;-64
2024/02/26 00:43:33;;;;;;;;;;;;;;;4.74;41.83;93700.44;4955551;28;19933;-65
2024/02/26 00:45:58;;;;;;;;;;;;;;;4.84;41.87;93698.31;4970397;28;19988;-64
2024/02/26 00:48:25;;;;;;;;;;;;;;;4.93;41.60;93699.81;4955430;28;20522;-66
2024/02/26 00:50:50;;;;;;;;;;;;;;;4.74;41.94;93693.34;4955370;28;19922;-65
2024/02/26 00:53:16;;;;;;;;;;;;;;;4.68;41.60;93691.47;4955639;28;19932;-65
2024/02/26 00:55:41;;;;;;;;;;;;;;;4.85;41.88;93699.94;4955486;28;19928;-65
2024/02/26 00:58:06;;;;;;;;;;;;;;;4.81;42.03;93702.16;4951935;28;19991;-64
2024/02/26 01:00:31;;;;;;;;;;;;;;;4.59;42.75;93706.56;4952666;28;20021;-65
2024/02/26 01:02:57;;;;;;;;;;;;;;;4.47;44.91;93714.19;4955250;28;19976;-65
2024/02/26 01:05:22;;;;;;;;;;;;;;;4.59;43.35;93717.13;4955439;28;19961;-64
2024/02/26 01:07:47;;;;;;;;;;;;;;;4.82;42.75;93724.03;4955470;28;19996;-64
2024/02/26 01:10:12;;;;;;;;;;;;;;;4.77;42.76;93708.81;4954276;28;19965;-64
2024/02/26 01:12:38;;;;;;;;;;;;;;;4.83;42.86;93709.88;4955522;28;19973;-64
2024/02/26 01:15:03;;;;;;;;;;;;;;;4.59;45.23;93717.13;4954554;28;19926;-64
2024/02/26 01:17:28;;;;;;;;;;;;;;;4.88;43.28;93712.75;4956094;28;20335;-65
2024/02/26 01:19:54;;;;;;;;;;;;;;;4.88;43.38;93711.91;4954168;28;20329;-64
2024/02/26 01:22:19;;;;;;;;;;;;;;;4.97;43.40;93702.88;4954186;28;20009;-64
2024/02/26 01:24:44;;;;;;;;;;;;;;;4.94;43.41;93711.19;4955003;28;20097;-64
2024/02/26 01:27:10;;;;;;;;;;;;;;;4.78;44.16;93704.31;4955326;28;19988;-64
2024/02/26 01:29:35;;;;;;;;;;;;;;;4.67;44.93;93687.19;4955350;28;20029;-63
2024/02/26 01:32:00;;;;;;;;;;;;;;;4.33;45.72;93679.75;4954285;28;20604;-65
2024/02/26 01:34:25;;;;;;;;;;;;;;;4.51;45.82;93682.97;4954429;28;19933;-65
2024/02/26 01:36:51;;;;;;;;;;;;;;;4.78;45.11;93688.50;4955871;28;20013;-66
2024/02/26 01:39:16;;;;;;;;;;;;;;;4.57;45.28;93677.81;4954204;28;20269;-64
2024/02/26 01:41:41;;;;;;;;;;;;;;;4.68;45.19;93683.56;4955059;28;20170;-65
2024/02/26 01:44:06;;;;;;;;;;;;;;;4.55;45.56;93676.31;4950450;28;19926;-64
2024/02/26 01:46:33;;;;;;;;;;;;;;;4.58;45.86;93675.97;4954276;28;19926;-65
2024/02/26 01:48:58;;;;;;;;;;;;;;;4.68;45.46;93678.28;4970133;28;20364;-64
2024/02/26 01:51:23;;;;;;;;;;;;;;;4.64;45.42;93675.22;4953591;28;20021;-65
2024/02/26 01:53:48;;;;;;;;;;;;;;;4.71;45.70;93678.75;4955349;28;19969;-64
2024/02/26 01:56:14;;;;;;;;;;;;;;;4.78;45.24;93672.69;4954861;28;19984;-64
2024/02/26 01:58:39;;;;;;;;;;;;;;;4.51;47.22;93675.06;4969151;28;20042;-64
2024/02/26 02:01:04;;;;;;;;;;;;;;;4.58;46.03;93668.06;4953774;28;19991;-65
2024/02/26 02:03:30;;;;;;;;;;;;;;;4.26;48.29;93668.38;4954507;28;20031;-65
2024/02/26 02:05:55;;;;;;;;;;;;;;;4.58;46.20;93668.06;4941942;28;20025;-65
2024/02/26 02:08:20;;;;;;;;;;;;;;;4.56;45.93;93662.97;4954294;28;19929;-65
2024/02/26 02:10:47;;;;;;;;;;;;;;;4.71;45.87;93657.66;4953963;28;20330;-64
2024/02/26 02:13:13;;;;;;;;;;;;;;;4.85;45.47;93652.47;4956121;28;19933;-64
2024/02/26 02:15:38;;;;;;;;;;;;;;;4.67;47.01;93656.41;4954115;28;19930;-64
2024/02/26 02:18:04;;;;;;;;;;;;;;;4.40;48.33;93660.59;4969534;28;19954;-65
2024/02/26 02:20:35;;;;;;;;;;;;;;;4.37;50.46;93658.31;4955875;28;19962;-64
2024/02/26 02:23:00;;;;;;;;;;;;;;;4.52;51.15;93656.44;4957365;28;19937;-65
2024/02/26 02:25:26;;;;;;;;;;;;;;;4.56;50.32;93656.91;4955460;28;19922;-65
2024/02/26 02:27:51;;;;;;;;;;;;;;;4.44;49.78;93660.03;4958947;28;19925;-65
2024/02/26 02:30:17;;;;;;;;;;;;;;;4.38;50.68;93658.13;4972443;28;19926;-64
2024/02/26 02:32:42;;;;;;;;;;;;;;;4.27;50.25;93661.25;4954586;28;19976;-64
2024/02/26 02:35:07;;;;;;;;;;;;;;;4.18;50.09;93653.47;4952959;28;20722;-64
2024/02/26 02:37:32;;;;;;;;;;;;;;;4.07;49.47;93651.31;4969520;28;19922;-64
2024/02/26 02:39:58;;;;;;;;;;;;;;;4.10;51.33;93645.69;4956308;28;19930;-64
2024/02/26 02:42:23;;;;;;;;;;;;;;;3.96;50.71;93646.53;4947726;28;19965;-65
2024/02/26 02:44:49;;;;;;;;;;;;;;;4.23;50.88;93649.47;4958992;28;20350;-65
2024/02/26 02:47:14;;;;;;;;;;;;;;;3.93;50.11;93645.91;4948036;28;19980;-65
2024/02/26 02:49:40;;;;;;;;;;;;;;;4.05;49.92;93648.88;4955426;28;20665;-65
2024/02/26 02:52:05;;;;;;;;;;;;;;;4.05;49.65;93654.16;4952577;28;19931;-64
2024/02/26 02:54:30;;;;;;;;;;;;;;;3.69;49.35;93644.41;4956610;28;20582;-64
2024/02/26 02:56:55;;;;;;;;;;;;;;;3.83;50.71;93653.28;4956331;28;19926;-65
2024/02/26 02:59:21;;;;;;;;;;;;;;;3.97;51.32;93648.16;4958036;28;19922;-64
2024/02/26 03:01:46;;;;;;;;;;;;;;;3.88;49.07;93645.63;4955727;28;19926;-64
2024/02/26 03:04:11;;;;;;;;;;;;;;;3.73;50.15;93644.84;4949830;28;19929;-63
2024/02/26 03:06:37;;;;;;;;;;;;;;;4.04;53.47;93652.53;4950549;28;19963;-65
2024/02/26 03:09:02;;;;;;;;;;;;;;;4.10;52.73;93656.22;4957710;28;20677;-64
2024/02/26 03:11:27;;;;;;;;;;;;;;;4.11;53.04;93659.69;4948308;28;19932;-65
2024/02/26 03:13:52;;;;;;;;;;;;;;;4.07;50.94;93651.31;4957176;28;19926;-64
2024/02/26 03:16:18;;;;;;;;;;;;;;;4.10;50.50;93648.31;4947065;28;19937;-64
2024/02/26 03:18:43;;;;;;;;;;;;;;;4.26;51.83;93657.00;4945992;28;19919;-65
2024/02/26 03:21:09;;;;;;;;;;;;;;;4.20;52.72;93661.19;4942983;28;20459;-65
2024/02/26 03:23:36;;;;;;;;;;;;;;;4.32;51.77;93664.16;4951530;28;20008;-64
2024/02/26 03:26:04;;;;;;;;;;;;;;;4.45;52.09;93669.56;4954572;28;19934;-65
2024/02/26 03:28:30;;;;;;;;;;;;;;;4.39;52.33;93670.28;4943581;28;19922;-64
2024/02/26 03:30:55;;;;;;;;;;;;;;;4.53;53.88;93679.16;4957984;28;19991;-65
2024/02/26 03:33:21;;;;;;;;;;;;;;;4.57;53.09;93676.97;4949002;28;19930;-65
2024/02/26 03:35:46;;;;;;;;;;;;;;;4.54;53.71;93672.91;4953032;28;19988;-65
2024/02/26 03:38:11;;;;;;;;;;;;;;;4.38;52.52;93668.66;4952213;28;19928;-65
2024/02/26 03:40:37;;;;;;;;;;;;;;;4.10;51.45;93669.41;4956926;28;19977;-65
2024/02/26 03:43:04;;;;;;;;;;;;;;;4.22;51.50;93674.97;4944894;28;19999;-64
2024/02/26 03:45:29;;;;;;;;;;;;;;;4.54;53.16;93669.44;4957073;28;19926;-65
2024/02/26 03:47:55;;;;;;;;;;;;;;;4.51;53.02;93677.72;4957159;28;20881;-65
2024/02/26 03:50:20;;;;;;;;;;;;;;;4.49;51.81;93675.25;4957115;28;19977;-65
2024/02/26 03:52:45;;;;;;;;;;;;;;;4.55;50.68;93678.97;4957348;28;19988;-64
2024/02/26 03:55:10;;;;;;;;;;;;;;;4.69;52.93;93680.72;4957415;28;19933;-65
2024/02/26 03:57:36;;;;;;;;;;;;;;;4.65;52.83;93674.22;4957169;28;20021;-65
2024/02/26 04:00:01;;;;;;;;;;;;;;;4.62;50.83;93665.88;4962812;28;20655;-65
2024/02/26 04:02:26;;;;;;;;;;;;;;;4.65;52.14;93674.22;4956969;28;19918;-65
2024/02/26 04:04:52;;;;;;;;;;;;;;;4.63;53.66;93670.13;4956197;28;20025;-65
2024/02/26 04:07:17;;;;;;;;;;;;;;;4.49;50.96;93669.19;4957511;28;20445;-65
2024/02/26 04:09:43;;;;;;;;;;;;;;;4.36;53.16;93673.34;4956501;28;19991;-65
2024/02/26 04:12:08;;;;;;;;;;;;;;;4.33;55.07;93673.69;4957236;28;19954;-64
2024/02/26 04:14:33;;;;;;;;;;;;;;;4.39;52.65;93674.78;4956619;28;20276;-64
2024/02/26 04:16:58;;;;;;;;;;;;;;;4.40;49.53;93669.31;4956853;28;19922;-65
2024/02/26 04:19:24;;;;;;;;;;;;;;;4.52;51.68;93669.63;4956678;28;19929;-64
2024/02/26 04:21:49;;;;;;;;;;;;;;;4.57;51.00;93680.44;4956269;28;20430;-64
2024/02/26 04:24:14;;;;;;;;;;;;;;;4.70;52.23;93674.44;4956544;28;20036;-65
2024/02/26 04:26:39;;;;;;;;;;;;;;;4.56;53.03;93677.97;4956191;28;19969;-65
2024/02/26 04:29:05;;;;;;;;;;;;;;;4.35;51.32;93676.16;4956818;28;19973;-65
2024/02/26 04:31:32;;;;;;;;;;;;;;;4.38;49.90;93673.13;4956287;28;19921;-64
2024/02/26 04:33:58;;;;;;;;;;;;;;;4.57;52.83;93672.53;4966486;28;20573;-65
2024/02/26 04:36:23;;;;;;;;;;;;;;;4.33;52.39;93665.78;4955747;28;19932;-65
2024/02/26 04:38:48;;;;;;;;;;;;;;;4.43;52.12;93670.75;4956223;28;20578;-64
2024/02/26 04:41:13;;;;;;;;;;;;;;;4.35;52.03;93670.88;4955791;28;19934;-65
2024/02/26 04:43:41;;;;;;;;;;;;;;;4.44;52.33;93670.56;4956191;28;20173;-64
2024/02/26 04:46:09;;;;;;;;;;;;;;;4.22;50.80;93682.09;4955884;28;19914;-66
2024/02/26 04:48:34;;;;;;;;;;;;;;;4.23;52.30;93678.44;4953283;28;20010;-65
2024/02/26 04:51:00;;;;;;;;;;;;;;;4.10;53.23;93685.19;4955807;28;19918;-64
2024/02/26 04:53:25;;;;;;;;;;;;;;;4.00;52.00;93687.28;4955994;28;20281;-65
2024/02/26 04:55:51;;;;;;;;;;;;;;;4.07;52.28;93688.19;4964123;28;19976;-65
2024/02/26 04:58:17;;;;;;;;;;;;;;;4.13;53.66;93695.38;4956889;28;20490;-65
2024/02/26 05:00:42;;;;;;;;;;;;;;;4.09;53.07;93699.38;4954694;28;19926;-65
2024/02/26 05:03:07;;;;;;;;;;;;;;;3.93;51.97;93695.94;4956362;28;20411;-66
2024/02/26 05:05:33;;;;;;;;;;;;;;;4.11;52.54;93693.94;4954729;28;20009;-65
2024/02/26 05:07:58;;;;;;;;;;;;;;;4.16;54.38;93702.09;4956067;28;19922;-65
2024/02/26 05:10:23;;;;;;;;;;;;;;;3.89;51.27;93693.84;4955471;28;19932;-65
2024/02/26 05:12:48;;;;;;;;;;;;;;;4.04;53.16;93691.19;4956252;28;19952;-65
2024/02/26 05:15:18;;;;;;;;;;;;;;;4.19;53.46;93693.81;4956692;28;19926;-65
2024/02/26 05:17:43;;;;;;;;;;;;;;;4.21;54.40;93698.91;4967916;28;20230;-64
2024/02/26 05:20:09;;;;;;;;;;;;;;;4.24;52.28;93695.88;4954825;28;20303;-65
2024/02/26 05:22:34;;;;;;;;;;;;;;;3.66;51.59;93695.59;4956640;28;19922;-65
2024/02/26 05:24:59;;;;;;;;;;;;;;;3.80;53.44;93695.75;4959234;28;19926;-64
2024/02/26 05:27:25;;;;;;;;;;;;;;;3.99;54.97;93701.47;4955700;28;20561;-65
2024/02/26 05:29:51;;;;;;;;;;;;;;;3.96;53.53;93704.47;4955653;28;20583;-65
2024/02/26 05:32:17;;;;;;;;;;;;;;;4.03;55.60;93703.56;4955322;28;19930;-64
2024/02/26 05:34:42;;;;;;;;;;;;;;;4.01;54.34;93697.66;4955120;28;19929;-64
2024/02/26 05:37:07;;;;;;;;;;;;;;;4.13;55.36;93708.53;4955492;28;19922;-65
2024/02/26 05:39:32;;;;;;;;;;;;;;;4.11;54.20;93704.47;4954961;28;20483;-65
2024/02/26 05:41:58;;;;;;;;;;;;;;;4.17;55.67;93707.16;4949593;28;20541;-65
2024/02/26 05:44:25;;;;;;;;;;;;;;;4.19;55.23;93707.78;4948129;28;19984;-65
2024/02/26 05:46:51;;;;;;;;;;;;;;;4.22;53.98;93716.34;4950228;28;19922;-65
2024/02/26 05:49:16;;;;;;;;;;;;;;;4.16;53.90;93712.63;4954989;28;19965;-65
2024/02/26 05:51:41;;;;;;;;;;;;;;;4.17;54.83;93716.88;4955209;28;19922;-64
2024/02/26 05:54:08;;;;;;;;;;;;;;;4.18;55.02;93711.44;4955704;28;19997;-65
2024/02/26 05:56:33;;;;;;;;;;;;;;;4.04;54.25;93714.91;4942306;28;20291;-65
2024/02/26 05:58:58;;;;;;;;;;;;;;;4.18;55.62;93718.50;4955684;28;19922;-65
2024/02/26 06:01:24;;;;;;;;;;;;;;;4.17;55.65;93712.44;4958829;28;19926;-65
2024/02/26 06:03:49;;;;;;;;;;;;;;;4.15;53.77;93724.16;4955584;28;19930;-64
2024/02/26 06:06:15;;;;;;;;;;;;;;;4.02;52.82;93725.59;4946861;28;20108;-65
2024/02/26 06:08:40;;;;;;;;;;;;;;;4.01;54.87;93723.19;4959584;28;19926;-66
2024/02/26 06:11:06;;;;;;;;;;;;;;;3.87;53.93;93725.63;4959076;28;20022;-65
2024/02/26 06:13:32;;;;;;;;;;;;;;;3.94;53.87;93730.97;4959106;28;19953;-64
2024/02/26 06:15:57;;;;;;;;;;;;;;;3.94;54.77;93726.53;4957333;28;20372;-66
2024/02/26 06:18:22;;;;;;;;;;;;;;;3.70;53.26;93737.34;4958793;28;19973;-64
2024/02/26 06:20:48;;;;;;;;;;;;;;;3.72;54.82;93733.53;4958378;28;19965;-64
2024/02/26 06:23:13;;;;;;;;;;;;;;;3.64;55.60;93738.91;4959699;28;19929;-64
2024/02/26 06:25:38;;;;;;;;;;;;;;;3.75;54.10;93740.25;4958151;28;19932;-66
2024/02/26 06:28:04;;;;;;;;;;;;;;;3.80;54.97;93736.09;4958856;28;19932;-65
2024/02/26 06:30:29;;;;;;;;;;;;;;;3.57;53.49;93744.03;4958464;28;19930;-65
2024/02/26 06:32:55;;;;;;;;;;;;;;;3.74;54.40;93743.91;4958697;28;19965;-65
2024/02/26 06:35:20;;;;;;;;;;;;;;;3.70;55.52;93747.88;4958678;28;19933;-65
2024/02/26 06:37:45;;;;;;;;;;;;;;;3.58;54.56;93743.06;4959005;28;20693;-64
2024/02/26 06:40:11;;;;;;;;;;;;;;;3.70;56.36;93751.31;4955270;28;20418;-64
2024/02/26 06:42:36;;;;;;;;;;;;;;;3.65;55.85;93751.88;4965218;28;20684;-65
2024/02/26 06:45:02;;;;;;;;;;;;;;;3.59;55.55;93762.28;4960127;28;20065;-64
2024/02/26 06:47:29;;;;;;;;;;;;;;;3.64;54.27;93755.50;4958640;28;20456;-65
2024/02/26 06:49:57;;;;;;;;;;;;;;;3.30;54.24;93767.28;4958077;28;19993;-65
2024/02/26 06:52:23;;;;;;;;;;;;;;;3.12;55.03;93771.06;4963406;28;19930;-65
2024/02/26 06:54:51;;;;;;;;;;;;;;;3.31;56.23;93771.56;4958411;28;19937;-65
2024/02/26 06:57:16;;;;;;;;;;;;;;;3.36;54.91;93779.75;4958385;28;20716;-64
2024/02/26 06:59:45;;;;;;;;;;;;;;;3.24;54.56;93792.50;4957455;28;19937;-64
2024/02/26 07:02:11;;;;;;;;;;;;;;;3.23;54.98;93788.22;4957590;28;19921;-65
2024/02/26 07:04:37;;;;;;;;;;;;;;;3.32;53.32;93796.03;4957288;28;19926;-64
2024/02/26 07:07:02;;;;;;;;;;;;;;;3.54;55.76;93802.31;4958569;28;20299;-65
2024/02/26 07:09:27;;;;;;;;;;;;;;;3.33;54.54;93806.38;4960792;28;19968;-65
2024/02/26 07:11:52;;;;;;;;;;;;;;;3.47;55.85;93799.56;4958312;28;19930;-65
2024/02/26 07:14:18;;;;;;;;;;;;;;;3.64;56.49;93799.44;4957569;28;19930;-65
2024/02/26 07:16:43;;;;;;;;;;;;;;;3.41;56.10;93801.06;4955623;28;20653;-64
2024/02/26 07:19:08;;;;;;;;;;;;;;;3.39;55.21;93803.06;4956577;28;19937;-64
2024/02/26 07:21:34;;;;;;;;;;;;;;;3.36;57.72;93806.03;4956140;28;19937;-65
2024/02/26 07:23:59;;;;;;;;;;;;;;;3.38;55.25;93804.06;4955524;28;20689;-64
2024/02/26 07:26:25;;;;;;;;;;;;;;;3.51;55.33;93815.81;4955901;28;19937;-64
2024/02/26 07:28:51;;;;;;;;;;;;;;;3.57;55.43;93812.47;4949644;28;20051;-64
2024/02/26 07:31:17;;;;;;;;;;;;;;;3.53;57.68;93814.66;4954284;28;19930;-65
2024/02/26 07:33:42;;;;;;;;;;;;;;;3.65;55.69;93811.59;4957776;28;19984;-65
2024/02/26 07:36:08;;;;;;;;;;;;;;;3.41;55.68;93816.84;4955194;28;20331;-64
2024/02/26 07:38:33;;;;;;;;;;;;;;;3.64;56.42;93821.28;4957404;28;19965;-65
2024/02/26 07:40:58;;;;;;;;;;;;;;;3.60;56.80;93816.56;4956302;28;20392;-64
2024/02/26 07:43:23;;;;;;;;;;;;;;;3.47;54.24;93825.06;4955195;28;20407;-64
2024/02/26 07:45:49;;;;;;;;;;;;;;;3.49;55.69;93821.25;4953226;28;20630;-65
2024/02/26 07:48:14;;;;;;;;;;;;;;;3.48;55.33;93821.44;4955832;28;19932;-65
2024/02/26 07:50:40;;;;;;;;;;;;;;;3.30;53.74;93825.16;4954842;28;19969;-64
2024/02/26 07:53:05;;;;;;;;;;;;;;;3.20;55.79;93822.75;4955436;28;20008;-64
2024/02/26 07:55:31;;;;;;;;;;;;;;;3.16;54.11;93822.31;4956691;28;19918;-64
2024/02/26 07:57:56;;;;;;;;;;;;;;;3.38;55.75;93822.47;4956734;28;19926;-64
2024/02/26 08:00:21;;;;;;;;;;;;;;;3.35;54.20;93822.84;4955346;28;19977;-63
2024/02/26 08:02:47;;;;;;;;;;;;;;;3.32;55.42;93827.59;4956925;28;19922;-64
2024/02/26 08:05:12;;;;;;;;;;;;;;;3.36;55.67;93828.88;4954154;28;19937;-64
2024/02/26 08:07:37;;;;;;;;;;;;;;;3.36;55.18;93834.16;4955597;28;19937;-64
2024/02/26 08:10:03;;;;;;;;;;;;;;;3.26;53.91;93837.84;4954569;28;20057;-65
2024/02/26 08:12:28;;;;;;;;;;;;;;;3.27;54.52;93830.78;4955318;28;19934;-65
2024/02/26 08:14:54;;;;;;;;;;;;;;;3.32;52.73;93838.13;4955767;28;19922;-65
2024/02/26 08:17:19;;;;;;;;;;;;;;;3.30;54.37;93841.75;4956101;28;20009;-65
2024/02/26 08:19:44;;;;;;;;;;;;;;;3.25;54.69;93838.84;4956897;28;20609;-65
2024/02/26 08:22:15;;;;;;;;;;;;;;;3.31;52.80;93834.69;4955429;28;19972;-64
2024/02/26 08:24:41;;;;;;;;;;;;;;;3.31;52.80;93834.69;4951733;28;19926;-64
2024/02/26 08:27:06;;;;;;;;;;;;;;;3.31;53.52;93839.97;4955617;28;19933;-64
2024/02/26 08:29:31;;;;;;;;;;;;;;;3.39;53.55;93844.31;4954881;28;20475;-64
2024/02/26 08:31:56;;;;;;;;;;;;;;;3.27;53.27;93841.31;4954190;28;20539;-65
2024/02/26 08:34:22;;;;;;;;;;;;;;;3.47;54.92;93846.13;4955745;28;19938;-65
2024/02/26 08:36:48;;;;;;;;;;;;;;;3.39;54.64;93857.47;4956110;28;19926;-65
2024/02/26 08:39:14;;;;;;;;;;;;;;;3.32;54.75;93856.53;4955545;28;20355;-66
2024/02/26 08:41:39;;;;;;;;;;;;;;;3.30;55.77;93865.44;4955076;28;20017;-65
2024/02/26 08:44:04;;;;;;;;;;;;;;;3.39;55.35;93858.31;4951717;28;19961;-64
2024/02/26 08:46:30;;;;;;;;;;;;;;;3.21;54.53;93876.19;4955599;28;19962;-64
2024/02/26 08:48:55;;;;;;;;;;;;;;;3.28;55.02;93877.13;4955200;28;20409;-65
2024/02/26 08:51:20;;;;;;;;;;;;;;;3.23;55.83;93876.84;4950386;28;20520;-65
2024/02/26 08:53:45;;;;;;;;;;;;;;;3.41;55.18;93874.72;4953105;28;20009;-64
2024/02/26 08:56:16;;;;;;;;;;;;;;;3.31;54.85;93871.53;4953600;28;20381;-65
2024/02/26 08:58:41;;;;;;;;;;;;;;;3.41;54.91;93879.19;4953960;28;20011;-65
2024/02/26 09:01:07;;;;;;;;;;;;;;;3.27;55.78;93883.41;4954200;28;19926;-66
2024/02/26 09:03:32;;;;;;;;;;;;;;;3.36;54.48;93882.34;4952741;28;19937;-64
2024/02/26 09:05:57;;;;;;;;;;;;;;;3.36;54.45;93878.88;4952700;28;19937;-64
2024/02/26 09:08:22;;;;;;;;;;;;;;;3.39;56.37;93881.16;4954040;28;20364;-64
2024/02/26 09:10:48;;;;;;;;;;;;;;;3.34;55.66;93875.63;4955240;28;19934;-65
2024/02/26 09:13:13;;;;;;;;;;;;;;;3.53;54.38;93879.59;4953388;28;20732;-64
2024/02/26 09:15:38;;;;;;;;;;;;;;;3.67;54.90;93881.47;4952399;28;20375;-64
2024/02/26 09:18:03;;;;;;;;;;;;;;;3.46;54.32;93882.13;4953940;28;19926;-64
2024/02/26 09:20:29;;;;;;;;;;;;;;;3.57;55.48;93877.44;4954046;28;19937;-65
2024/02/26 09:22:54;;;;;;;;;;;;;;;3.58;55.21;93882.53;4954684;28;19926;-65
2024/02/26 09:25:20;;;;;;;;;;;;;;;3.73;53.72;93884.38;4952330;28;19933;-64
2024/02/26 09:27:45;;;;;;;;;;;;;;;3.74;53.71;93878.94;4954708;28;19922;-64
2024/02/26 09:30:11;;;;;;;;;;;;;;;3.83;55.12;93887.59;4954408;28;19926;-65
2024/02/26 09:32:37;;;;;;;;;;;;;;;3.93;55.18;93882.91;4954033;28;20351;-62
2024/02/26 09:35:02;;;;;;;;;;;;;;;4.21;54.21;93892.00;4952658;28;20244;-65
2024/02/26 09:37:27;;;;;;;;;;;;;;;4.16;54.92;93897.81;4953551;28;19926;-64
2024/02/26 09:39:52;;;;;;;;;;;;;;;4.26;55.71;93904.63;4954481;28;20001;-63
2024/02/26 09:42:18;;;;;;;;;;;;;;;4.34;53.89;93899.28;4954491;28;19988;-64
2024/02/26 09:44:43;;;;;;;;;;;;;;;4.32;53.09;93896.03;4952443;28;19922;-65
2024/02/26 09:47:09;;;;;;;;;;;;;;;4.29;52.67;93889.28;4953176;28;20378;-65
2024/02/26 09:49:34;;;;;;;;;;;;;;;4.23;52.87;93892.66;4961595;28;19926;-63
2024/02/26 09:52:02;;;;;;;;;;;;;;;4.44;53.18;93886.66;4953782;28;19926;-64
2024/02/26 09:54:28;;;;;;;;;;;;;;;4.51;53.33;93893.81;4950847;28;20073;-63
2024/02/26 09:56:53;;;;;;;;;;;;;;;4.75;53.58;93895.34;4965675;28;20057;-65
2024/02/26 09:59:18;;;;;;;;;;;;;;;4.77;52.60;93897.81;4953335;28;20399;-63
2024/02/26 10:01:44;;;;;;;;;;;;;;;4.67;52.47;93908.63;4953853;28;20679;-64
2024/02/26 10:04:09;;;;;;;;;;;;;;;4.95;52.76;93916.69;4953597;28;19926;-64
2024/02/26 10:06:34;;;;;;;;;;;;;;;4.96;52.66;93923.59;4969089;28;20765;-64
2024/02/26 10:09:00;;;;;;;;;;;;;;;4.85;52.82;93918.81;4953682;28;19926;-63
2024/02/26 10:11:25;;;;;;;;;;;;;;;5.12;53.34;93920.97;4967589;28;19923;-63
2024/02/26 10:13:50;;;;;;;;;;;;;;;5.13;51.77;93918.13;4964292;28;19930;-65
2024/02/26 10:16:16;;;;;;;;;;;;;;;5.24;51.40;93913.41;4954876;28;19926;-64
2024/02/26 10:18:50;;;;;;;;;;;;;;;5.37;51.20;93916.16;4954502;28;19922;-65
2024/02/26 10:21:17;;;;;;;;;;;;;;;5.37;51.89;93912.72;4952883;28;19926;-63
2024/02/26 10:23:43;;;;;;;;;;;;;;;5.42;51.13;93911.16;4954965;28;20514;-64
2024/02/26 10:26:08;;;;;;;;;;;;;;;5.39;50.83;93922.09;4953983;28;19933;-64
2024/02/26 10:28:34;;;;;;;;;;;;;;;5.55;51.04;93930.75;4953054;28;19933;-64
2024/02/26 10:31:00;;;;;;;;;;;;;;;5.57;50.64;93944.59;4952706;28;20072;-64
2024/02/26 10:33:25;;;;;;;;;;;;;;;5.71;50.91;93941.06;4953571;28;20492;-65
2024/02/26 10:35:50;;;;;;;;;;;;;;;5.68;50.94;93946.72;4953111;28;19966;-64
2024/02/26 10:38:20;;;;;;;;;;;;;;;5.75;51.40;93954.72;4952019;28;20000;-65
2024/02/26 10:40:45;;;;;;;;;;;;;;;5.71;51.76;93966.66;4952331;28;20400;-64
2024/02/26 10:43:10;;;;;;;;;;;;;;;5.63;55.08;93961.50;4947853;28;19928;-65
2024/02/26 10:45:36;;;;;;;;;;;;;;;5.62;53.99;93955.41;4952857;28;19926;-64
2024/02/26 10:48:02;;;;;;;;;;;;;;;5.72;54.46;93958.53;4953860;28;20605;-64
2024/02/26 10:50:27;;;;;;;;;;;;;;;5.78;52.42;93949.06;4957031;28;19922;-64
2024/02/26 10:52:52;;;;;;;;;;;;;;;5.64;54.92;93950.75;4958210;28;20017;-64
2024/02/26 10:55:18;;;;;;;;;;;;;;;5.98;51.27;93951.06;4955921;28;19981;-64
2024/02/26 10:57:44;;;;;;;;;;;;;;;5.98;49.91;93949.25;4959683;28;20734;-64
2024/02/26 11:00:12;;;;;;;;;;;;;;;6.07;50.12;93957.03;4956191;28;19929;-65
2024/02/26 11:02:37;;;;;;;;;;;;;;;5.98;49.11;93956.34;4955495;28;19918;-64
2024/02/26 11:05:03;;;;;;;;;;;;;;;5.98;49.51;93962.44;4956217;28;19926;-65
2024/02/26 11:07:29;;;;;;;;;;;;;;;6.15;49.45;93967.47;4953686;28;19934;-64
2024/02/26 11:09:54;;;;;;;;;;;;;;;6.45;49.97;93972.56;4956760;28;20444;-64
2024/02/26 11:12:20;;;;;;;;;;;;;;;6.37;51.04;93970.88;4956763;28;20647;-65
2024/02/26 11:14:45;;;;;;;;;;;;;;;6.66;50.00;93970.91;4956483;28;19965;-71
2024/02/26 11:17:11;;;;;;;;;;;;;;;6.68;48.46;93976.84;4958511;28;19926;-72
2024/02/26 11:19:36;;;;;;;;;;;;;;;6.67;48.62;93969.91;4971214;28;19974;-73
2024/02/26 11:22:01;;;;;;;;;;;;;;;6.66;49.30;93972.75;4958027;28;19969;-71
2024/02/26 11:24:27;;;;;;;;;;;;;;;6.73;49.06;93976.22;4955475;28;19937;-71
2024/02/26 11:26:59;;;;;;;;;;;;;;;6.64;48.97;93978.22;4957664;28;19928;-75
2024/02/26 11:29:25;;;;;;;;;;;;;;;6.56;48.90;93979.19;4965708;28;19981;-74
2024/02/26 11:31:50;;;;;;;;;;;;;;;6.62;49.29;93973.13;4957480;28;19933;-76
2024/02/26 11:34:16;;;;;;;;;;;;;;;6.63;49.89;93979.22;4958182;28;19934;-73
2024/02/26 11:36:42;;;;;;;;;;;;;;;6.70;49.08;93980.09;4980084;28;20739;-72
2024/02/26 11:39:07;;;;;;;;;;;;;;;6.82;49.00;93982.19;4955625;28;20303;-74
2024/02/26 11:41:32;;;;;;;;;;;;;;;6.89;49.46;93989.16;4939121;28;19934;-75
2024/02/26 11:44:00;;;;;;;;;;;;;;;6.99;48.69;93982.69;4957790;28;20038;-74
2024/02/26 11:46:26;;;;;;;;;;;;;;;7.10;49.35;93982.13;4955978;28;20607;-73
2024/02/26 11:48:53;;;;;;;;;;;;;;;7.21;48.83;93988.69;4972183;28;19929;-73
2024/02/26 11:51:18;;;;;;;;;;;;;;;7.36;48.87;93991.22;4957521;28;19918;-74
2024/02/26 11:53:50;;;;;;;;;;;;;;;7.25;48.18;93986.50;4971488;28;20363;-73
2024/02/26 11:56:19;;;;;;;;;;;;;;;7.17;48.80;93984.81;4956776;28;19926;-68
2024/02/26 11:58:44;;;;;;;;;;;;;;;7.68;47.66;93984.59;4956794;28;19922;-70
2024/02/26 12:01:28;;;;;;;;;;;;;;;7.84;47.27;93975.47;4955437;28;19989;-68
2024/02/26 12:03:54;;;;;;;;;;;;;;;8.11;46.64;93978.16;4955227;28;19929;-69
2024/02/26 12:06:19;;;;;;;;;;;;;;;8.24;46.42;93983.50;4954491;28;19933;-68
2024/02/26 12:08:45;;;;;;;;;;;;;;;8.27;46.57;93983.06;4956151;28;20013;-67
2024/02/26 12:11:19;;;;;;;;;;;;;;;8.35;46.15;93984.72;4956764;28;20419;-68
2024/02/26 12:13:45;;;;;;;;;;;;;;;8.35;46.29;93989.19;4954053;28;19996;-68
2024/02/26 12:16:10;;;;;;;;;;;;;;;8.23;46.00;93997.75;4953841;28;19926;-68
2024/02/26 12:18:36;;;;;;;;;;;;;;;8.14;46.12;93994.50;4953675;28;20603;-69
2024/02/26 12:21:01;;;;;;;;;;;;;;;8.05;46.50;94001.00;4954402;28;19926;-69
2024/02/26 12:23:28;;;;;;;;;;;;;;;7.98;47.06;94000.16;4956815;28;20267;-68
2024/02/26 12:25:53;;;;;;;;;;;;;;;8.02;47.23;93996.91;4954817;28;20371;-68
2024/02/26 12:28:18;;;;;;;;;;;;;;;8.28;46.31;94000.63;4952935;28;19934;-68
2024/02/26 12:30:44;;;;;;;;;;;;;;;8.38;46.70;94004.69;4953961;28;19939;-69
2024/02/26 12:33:09;;;;;;;;;;;;;;;8.15;46.37;94016.50;4954739;28;20009;-68
2024/02/26 12:35:34;;;;;;;;;;;;;;;8.23;46.73;94024.25;4950997;28;19980;-68
2024/02/26 12:38:00;;;;;;;;;;;;;;;8.14;46.71;94022.84;4956691;28;20504;-68
2024/02/26 12:40:26;;;;;;;;;;;;;;;8.25;46.11;94024.88;4956446;28;19926;-68
2024/02/26 12:42:53;;;;;;;;;;;;;;;7.62;49.00;94023.28;4956242;28;20047;-68
2024/02/26 12:45:20;;;;;;;;;;;;;;;7.41;49.89;94030.31;4954136;28;19926;-69
2024/02/26 12:47:49;;;;;;;;;;;;;;;7.46;48.52;94024.44;4957124;28;20616;-69
2024/02/26 12:50:15;;;;;;;;;;;;;;;7.56;48.04;94034.66;4955640;28;20032;-69